createdAt,value
2017-09-30T00:00:17.419Z,16.17
2017-09-30T00:00:51.128Z,17.35
2017-09-30T00:01:24.849Z,18.08
2017-09-30T00:01:58.586Z,20.12
2017-09-30T00:02:32.737Z,22.10
2017-09-30T00:03:06.457Z,24.50
2017-09-30T00:03:40.189Z,20.50
2017-09-30T00:04:13.904Z,21.67
2017-09-30T00:04:47.639Z,22.08
2017-09-30T00:05:22.130Z,18.85
2017-09-30T00:05:55.852Z,18.00
2017-09-30T00:06:29.573Z,18.95
2017-09-30T00:07:03.276Z,23.62
2017-09-30T00:07:37.010Z,19.98
2017-09-30T00:08:11.508Z,16.58
2017-09-30T00:08:45.234Z,18.48
2017-09-30T00:09:18.968Z,18.15
2017-09-30T00:09:52.782Z,19.62
2017-09-30T00:10:26.524Z,17.90
2017-09-30T00:11:00.237Z,23.42
2017-09-30T00:11:34.076Z,20.08
2017-09-30T00:12:08.582Z,17.33
2017-09-30T00:12:43.078Z,20.75
2017-09-30T00:13:16.827Z,17.98
2017-09-30T00:13:50.547Z,23.73
2017-09-30T00:14:24.266Z,16.83
2017-09-30T00:14:58.773Z,19.50
2017-09-30T00:15:33.260Z,18.30
2017-09-30T00:16:07.804Z,19.15
2017-09-30T00:16:41.550Z,23.20
2017-09-30T00:17:15.275Z,17.85
2017-09-30T00:17:49.787Z,18.42
2017-09-30T00:18:24.272Z,23.48
2017-09-30T00:18:58.020Z,20.08
2017-09-30T00:19:31.748Z,21.48
2017-09-30T00:20:05.482Z,18.73
2017-09-30T00:20:39.206Z,20.70
2017-09-30T00:21:12.941Z,19.62
2017-09-30T00:21:47.439Z,18.73
2017-09-30T00:22:21.150Z,17.67
2017-09-30T00:22:55.628Z,23.17
2017-09-30T00:23:29.359Z,17.87
2017-09-30T00:24:03.084Z,21.08
2017-09-30T00:24:36.812Z,19.27
2017-09-30T00:25:10.552Z,18.58
2017-09-30T00:25:44.272Z,18.77
2017-09-30T00:26:18.110Z,17.98
2017-09-30T00:26:51.852Z,19.95
2017-09-30T00:27:25.570Z,21.42
2017-09-30T00:27:59.294Z,20.17
2017-09-30T00:28:33.018Z,19.20
2017-09-30T00:29:06.741Z,23.73
2017-09-30T00:29:40.483Z,19.30
2017-09-30T00:30:14.229Z,18.87
2017-09-30T00:30:48.715Z,19.25
2017-09-30T00:31:22.440Z,21.83
2017-09-30T00:31:56.927Z,18.12
2017-09-30T00:32:31.412Z,18.05
2017-09-30T00:33:05.142Z,18.65
2017-09-30T00:33:39.617Z,20.90
2017-09-30T00:34:13.343Z,21.77
2017-09-30T00:34:47.845Z,22.20
2017-09-30T00:35:22.339Z,17.83
2017-09-30T00:35:56.103Z,25.35
2017-09-30T00:36:29.860Z,22.55
2017-09-30T00:37:03.588Z,18.35
2017-09-30T00:37:36.634Z,19.12
2017-09-30T00:38:10.345Z,21.55
2017-09-30T00:38:44.059Z,20.75
2017-09-30T00:39:17.785Z,25.05
2017-09-30T00:39:52.290Z,22.33
2017-09-30T00:40:26.803Z,26.15
2017-09-30T00:41:01.282Z,26.73
2017-09-30T00:41:35.010Z,23.92
2017-09-30T00:42:09.138Z,24.95
2017-09-30T00:42:42.890Z,19.02
2017-09-30T00:43:16.692Z,24.12
2017-09-30T00:43:50.425Z,22.83
2017-09-30T00:44:23.801Z,20.20
2017-09-30T00:44:57.528Z,19.15
2017-09-30T00:45:31.272Z,22.15
2017-09-30T00:46:04.993Z,18.87
2017-09-30T00:46:38.718Z,24.60
2017-09-30T00:47:12.856Z,19.20
2017-09-30T00:47:46.585Z,20.02
2017-09-30T00:48:20.320Z,24.92
2017-09-30T00:48:54.066Z,17.10
2017-09-30T00:49:27.779Z,24.63
2017-09-30T00:50:02.269Z,18.65
2017-09-30T00:50:36.023Z,21.58
2017-09-30T00:51:09.735Z,21.05
2017-09-30T00:51:43.112Z,22.02
2017-09-30T00:52:16.845Z,20.25
2017-09-30T00:52:50.448Z,23.73
2017-09-30T00:53:24.463Z,21.67
2017-09-30T00:53:58.180Z,23.62
2017-09-30T00:54:31.564Z,19.10
2017-09-30T00:55:05.284Z,19.40
2017-09-30T00:55:38.340Z,19.60
2017-09-30T00:56:11.369Z,26.05
2017-09-30T00:56:44.408Z,23.10
2017-09-30T00:57:18.200Z,21.73
2017-09-30T00:57:51.224Z,25.33
2017-09-30T00:58:24.242Z,24.02
2017-09-30T00:58:57.273Z,28.77
2017-09-30T00:59:30.329Z,20.45
2017-09-30T01:00:03.702Z,24.12
2017-09-30T01:00:37.500Z,22.92
2017-09-30T01:01:10.704Z,24.87
2017-09-30T01:01:44.077Z,23.77
2017-09-30T01:02:17.450Z,23.20
2017-09-30T01:02:51.169Z,23.75
2017-09-30T01:03:24.908Z,18.85
2017-09-30T01:03:59.401Z,23.42
2017-09-30T01:04:33.896Z,20.88
2017-09-30T01:05:07.617Z,20.30
2017-09-30T01:05:42.091Z,27.42
2017-09-30T01:06:15.832Z,21.42
2017-09-30T01:06:49.952Z,27.25
2017-09-30T01:07:23.670Z,22.70
2017-09-30T01:07:57.381Z,23.83
2017-09-30T01:08:31.091Z,22.87
2017-09-30T01:09:04.890Z,27.55
2017-09-30T01:09:39.389Z,22.48
2017-09-30T01:10:13.900Z,22.65
2017-09-30T01:10:47.703Z,23.73
2017-09-30T01:11:22.244Z,22.52
2017-09-30T01:11:55.613Z,21.55
2017-09-30T01:12:30.483Z,26.10
2017-09-30T01:13:04.196Z,21.42
2017-09-30T01:13:38.688Z,27.10
2017-09-30T01:14:12.406Z,23.55
2017-09-30T01:14:46.127Z,20.88
2017-09-30T01:15:19.857Z,24.70
2017-09-30T01:15:53.256Z,24.45
2017-09-30T01:16:27.416Z,23.48
2017-09-30T01:17:01.146Z,22.40
2017-09-30T01:17:35.624Z,29.33
2017-09-30T01:18:09.330Z,23.12
2017-09-30T01:18:42.709Z,27.67
2017-09-30T01:19:16.091Z,20.02
2017-09-30T01:19:49.211Z,22.02
2017-09-30T01:20:22.252Z,24.77
2017-09-30T01:20:55.620Z,28.02
2017-09-30T01:21:28.687Z,23.10
2017-09-30T01:22:01.705Z,24.77
2017-09-30T01:22:34.870Z,25.40
2017-09-30T01:23:08.764Z,29.85
2017-09-30T01:23:42.557Z,20.90
2017-09-30T01:24:16.379Z,27.42
2017-09-30T01:24:49.757Z,20.48
2017-09-30T01:25:26.092Z,21.40
2017-09-30T01:25:59.900Z,30.10
2017-09-30T01:26:32.932Z,27.92
2017-09-30T01:27:06.311Z,27.92
2017-09-30T01:27:39.352Z,20.83
2017-09-30T01:28:12.388Z,18.98
2017-09-30T01:28:46.280Z,26.10
2017-09-30T01:29:20.073Z,26.40
2017-09-30T01:29:53.861Z,22.00
2017-09-30T01:30:28.343Z,23.98
2017-09-30T01:31:01.400Z,24.27
2017-09-30T01:31:34.784Z,23.50
2017-09-30T01:32:07.809Z,22.55
2017-09-30T01:32:41.932Z,28.58
2017-09-30T01:33:15.305Z,24.25
2017-09-30T01:33:48.360Z,22.67
2017-09-30T01:34:22.156Z,24.40
2017-09-30T01:34:55.946Z,23.38
2017-09-30T01:35:29.732Z,22.90
2017-09-30T01:36:03.860Z,24.35
2017-09-30T01:36:37.189Z,25.62
2017-09-30T01:37:10.928Z,21.00
2017-09-30T01:37:43.952Z,27.48
2017-09-30T01:38:17.314Z,26.50
2017-09-30T01:38:50.340Z,26.30
2017-09-30T01:39:24.233Z,29.23
2017-09-30T01:39:57.265Z,26.58
2017-09-30T01:40:30.292Z,26.45
2017-09-30T01:41:04.076Z,25.75
2017-09-30T01:41:38.281Z,23.73
2017-09-30T01:42:12.404Z,22.98
2017-09-30T01:42:45.428Z,26.17
2017-09-30T01:43:19.222Z,29.05
2017-09-30T01:43:52.233Z,26.15
2017-09-30T01:44:25.270Z,25.15
2017-09-30T01:44:58.284Z,24.98
2017-09-30T01:45:31.292Z,28.58
2017-09-30T01:46:04.317Z,23.33
2017-09-30T01:46:38.129Z,26.17
2017-09-30T01:47:11.500Z,26.83
2017-09-30T01:47:45.693Z,20.85
2017-09-30T01:48:19.480Z,28.73
2017-09-30T01:48:52.537Z,27.62
2017-09-30T01:49:25.564Z,21.98
2017-09-30T01:49:58.592Z,25.37
2017-09-30T01:50:31.968Z,27.23
2017-09-30T01:51:04.999Z,26.05
2017-09-30T01:51:38.037Z,26.40
2017-09-30T01:52:11.824Z,24.20
2017-09-30T01:52:44.848Z,26.12
2017-09-30T01:53:18.221Z,24.08
2017-09-30T01:53:51.252Z,24.75
2017-09-30T01:54:24.274Z,25.77
2017-09-30T01:54:57.648Z,23.95
2017-09-30T01:55:31.041Z,23.98
2017-09-30T01:56:04.440Z,27.60
2017-09-30T01:56:37.468Z,28.25
2017-09-30T01:57:11.626Z,26.67
2017-09-30T01:57:44.646Z,24.25
2017-09-30T01:58:18.789Z,23.58
2017-09-30T01:58:52.199Z,23.05
2017-09-30T01:59:25.230Z,23.55
2017-09-30T01:59:58.260Z,35.33
2017-09-30T02:00:31.281Z,23.15
2017-09-30T02:01:04.293Z,26.10
2017-09-30T02:01:37.306Z,25.17
2017-09-30T02:02:10.321Z,23.75
2017-09-30T02:02:43.698Z,24.33
2017-09-30T02:03:16.727Z,29.60
2017-09-30T02:03:50.876Z,25.52
2017-09-30T02:04:24.256Z,25.33
2017-09-30T02:04:57.281Z,28.90
2017-09-30T02:05:31.762Z,27.92
2017-09-30T02:06:05.147Z,24.52
2017-09-30T02:06:38.535Z,28.17
2017-09-30T02:07:11.905Z,26.02
2017-09-30T02:07:45.645Z,25.88
2017-09-30T02:08:19.031Z,26.40
2017-09-30T02:08:52.403Z,28.00
2017-09-30T02:09:26.168Z,33.25
2017-09-30T02:10:00.652Z,34.15
2017-09-30T02:10:34.369Z,31.45
2017-09-30T02:11:07.780Z,29.70
2017-09-30T02:11:41.148Z,28.90
2017-09-30T02:12:15.296Z,31.77
2017-09-30T02:12:49.033Z,30.40
2017-09-30T02:13:23.519Z,31.87
2017-09-30T02:13:57.239Z,27.25
2017-09-30T02:14:31.716Z,26.80
2017-09-30T02:15:05.439Z,28.33
2017-09-30T02:15:39.569Z,26.75
2017-09-30T02:16:13.337Z,24.50
2017-09-30T02:16:47.077Z,34.97
2017-09-30T02:17:20.810Z,35.17
2017-09-30T02:17:54.963Z,29.42
2017-09-30T02:18:28.344Z,29.80
2017-09-30T02:19:01.712Z,26.50
2017-09-30T02:19:35.426Z,35.40
2017-09-30T02:20:09.148Z,30.12
2017-09-30T02:20:42.237Z,30.62
2017-09-30T02:21:16.388Z,32.55
2017-09-30T02:21:50.113Z,27.37
2017-09-30T02:22:23.140Z,28.23
2017-09-30T02:22:57.219Z,32.35
2017-09-30T02:23:30.929Z,33.42
2017-09-30T02:24:04.308Z,33.10
2017-09-30T02:24:38.015Z,32.10
2017-09-30T02:25:11.776Z,33.95
2017-09-30T02:25:45.495Z,31.48
2017-09-30T02:26:19.225Z,36.55
2017-09-30T02:26:53.747Z,30.62
2017-09-30T02:27:28.234Z,28.33
2017-09-30T02:28:03.593Z,43.90
2017-09-30T02:28:37.333Z,35.10
2017-09-30T02:29:11.068Z,33.63
2017-09-30T02:29:45.552Z,36.22
2017-09-30T02:30:19.284Z,30.17
2017-09-30T02:30:53.008Z,45.03
2017-09-30T02:31:26.743Z,37.38
2017-09-30T02:32:01.250Z,31.83
2017-09-30T02:32:35.731Z,34.63
2017-09-30T02:33:09.470Z,37.03
2017-09-30T02:33:43.952Z,39.75
2017-09-30T02:34:17.685Z,34.83
2017-09-30T02:34:51.409Z,33.00
2017-09-30T02:35:25.125Z,29.98
2017-09-30T02:35:58.849Z,34.58
2017-09-30T02:36:32.582Z,35.75
2017-09-30T02:37:06.299Z,33.50
2017-09-30T02:37:40.809Z,41.63
2017-09-30T02:38:15.341Z,36.17
2017-09-30T02:38:49.049Z,38.53
2017-09-30T02:39:22.774Z,36.75
2017-09-30T02:39:56.513Z,37.50
2017-09-30T02:40:30.238Z,36.63
2017-09-30T02:41:03.967Z,34.90
2017-09-30T02:41:38.474Z,39.00
2017-09-30T02:42:12.961Z,34.40
2017-09-30T02:42:46.693Z,34.33
2017-09-30T02:43:21.202Z,35.72
2017-09-30T02:43:55.717Z,32.25
2017-09-30T02:44:30.206Z,34.60
2017-09-30T02:45:03.921Z,38.28
2017-09-30T02:45:38.396Z,39.50
2017-09-30T02:46:12.115Z,36.80
2017-09-30T02:46:46.576Z,37.28
2017-09-30T02:47:20.314Z,41.20
2017-09-30T02:47:54.039Z,39.30
2017-09-30T02:48:28.124Z,34.75
2017-09-30T02:49:01.866Z,37.35
2017-09-30T02:49:36.369Z,37.35
2017-09-30T02:50:10.099Z,39.42
2017-09-30T02:50:43.858Z,35.17
2017-09-30T02:51:17.560Z,39.10
2017-09-30T02:51:51.281Z,37.88
2017-09-30T02:52:25.002Z,41.25
2017-09-30T02:52:58.711Z,39.08
2017-09-30T02:53:32.438Z,38.47
2017-09-30T02:54:06.957Z,40.95
2017-09-30T02:54:40.488Z,35.58
2017-09-30T02:55:14.225Z,36.25
2017-09-30T02:55:48.696Z,37.03
2017-09-30T02:56:22.421Z,39.15
2017-09-30T02:56:56.726Z,45.30
2017-09-30T02:57:31.335Z,43.97
2017-09-30T02:58:05.810Z,39.30
2017-09-30T02:58:39.548Z,41.53
2017-09-30T02:59:13.274Z,40.03
2017-09-30T02:59:46.996Z,42.35
2017-09-30T03:00:20.706Z,38.67
2017-09-30T03:00:55.284Z,46.90
2017-09-30T03:01:28.988Z,44.72
2017-09-30T03:02:02.697Z,42.92
2017-09-30T03:02:37.184Z,40.67
2017-09-30T03:03:10.914Z,42.25
2017-09-30T03:03:44.327Z,40.55
2017-09-30T03:04:18.072Z,39.20
2017-09-30T03:04:52.479Z,48.90
2017-09-30T03:05:26.799Z,41.40
2017-09-30T03:06:00.538Z,44.22
2017-09-30T03:06:34.258Z,46.10
2017-09-30T03:07:08.774Z,48.72
2017-09-30T03:07:43.249Z,39.67
2017-09-30T03:08:16.988Z,47.55
2017-09-30T03:08:50.727Z,50.08
2017-09-30T03:09:24.436Z,42.47
2017-09-30T03:09:58.165Z,43.13
2017-09-30T03:10:31.939Z,43.58
2017-09-30T03:11:06.424Z,45.17
2017-09-30T03:11:40.138Z,42.88
2017-09-30T03:12:14.643Z,50.10
2017-09-30T03:12:49.136Z,44.85
2017-09-30T03:13:22.865Z,48.85
2017-09-30T03:13:56.956Z,38.95
2017-09-30T03:14:30.667Z,46.35
2017-09-30T03:15:04.033Z,44.08
2017-09-30T03:15:37.763Z,48.22
2017-09-30T03:16:11.487Z,44.55
2017-09-30T03:16:45.965Z,44.05
2017-09-30T03:17:19.688Z,43.53
2017-09-30T03:17:54.177Z,40.53
2017-09-30T03:18:27.886Z,46.75
2017-09-30T03:19:02.401Z,43.58
2017-09-30T03:19:36.897Z,45.72
2017-09-30T03:20:10.704Z,43.50
2017-09-30T03:20:45.263Z,45.75
2017-09-30T03:21:18.982Z,44.00
2017-09-30T03:21:52.715Z,44.83
2017-09-30T03:22:26.457Z,46.00
2017-09-30T03:23:00.172Z,44.90
2017-09-30T03:23:33.897Z,40.12
2017-09-30T03:24:07.640Z,50.65
2017-09-30T03:24:41.368Z,42.15
2017-09-30T03:25:15.088Z,44.58
2017-09-30T03:25:48.801Z,54.22
2017-09-30T03:26:22.520Z,45.80
2017-09-30T03:26:57.017Z,52.05
2017-09-30T03:27:30.739Z,44.28
2017-09-30T03:28:04.482Z,46.80
2017-09-30T03:28:38.206Z,47.53
2017-09-30T03:29:13.033Z,46.47
2017-09-30T03:29:46.777Z,47.00
2017-09-30T03:30:20.502Z,42.55
2017-09-30T03:30:55.008Z,41.97
2017-09-30T03:31:29.510Z,51.42
2017-09-30T03:32:04.005Z,41.67
2017-09-30T03:32:37.719Z,40.92
2017-09-30T03:33:12.237Z,47.10
2017-09-30T03:33:45.952Z,45.28
2017-09-30T03:34:19.711Z,47.50
2017-09-30T03:34:54.215Z,40.00
2017-09-30T03:35:28.720Z,44.90
2017-09-30T03:36:03.262Z,47.90
2017-09-30T03:36:36.977Z,45.35
2017-09-30T03:37:10.692Z,40.05
2017-09-30T03:37:44.409Z,45.40
2017-09-30T03:38:18.887Z,60.33
2017-09-30T03:38:52.611Z,47.67
2017-09-30T03:39:27.104Z,44.97
2017-09-30T03:40:00.820Z,49.15
2017-09-30T03:40:35.305Z,44.08
2017-09-30T03:41:09.022Z,59.67
2017-09-30T03:41:42.750Z,45.30
2017-09-30T03:42:16.485Z,51.10
2017-09-30T03:42:50.984Z,47.80
2017-09-30T03:43:24.699Z,45.17
2017-09-30T03:43:58.417Z,45.40
2017-09-30T03:44:32.150Z,49.20
2017-09-30T03:45:05.862Z,47.80
2017-09-30T03:45:40.472Z,44.08
2017-09-30T03:46:14.945Z,45.30
2017-09-30T03:46:48.670Z,47.55
2017-09-30T03:47:23.150Z,51.13
2017-09-30T03:47:56.865Z,43.42
2017-09-30T03:48:31.357Z,46.72
2017-09-30T03:49:05.098Z,48.70
2017-09-30T03:49:39.190Z,46.10
2017-09-30T03:50:12.908Z,45.55
2017-09-30T03:50:46.613Z,57.05
2017-09-30T03:51:19.992Z,48.03
2017-09-30T03:51:53.724Z,48.55
2017-09-30T03:52:28.204Z,48.35
2017-09-30T03:53:01.922Z,49.20
2017-09-30T03:53:36.412Z,49.95
2017-09-30T03:54:10.123Z,50.60
2017-09-30T03:54:44.624Z,47.72
2017-09-30T03:55:19.136Z,44.70
2017-09-30T03:55:53.634Z,55.45
2017-09-30T03:56:27.365Z,48.75
2017-09-30T03:57:00.914Z,52.00
2017-09-30T03:57:35.405Z,44.03
2017-09-30T03:58:09.128Z,45.30
2017-09-30T03:58:43.617Z,44.90
2017-09-30T03:59:17.345Z,48.33
2017-09-30T03:59:51.086Z,53.58
2017-09-30T04:00:24.805Z,46.47
2017-09-30T04:00:59.302Z,51.35
2017-09-30T04:01:33.795Z,44.92
2017-09-30T04:02:07.541Z,47.85
2017-09-30T04:02:41.261Z,49.10
2017-09-30T04:03:14.982Z,48.87
2017-09-30T04:03:48.709Z,41.95
2017-09-30T04:04:22.248Z,45.40
2017-09-30T04:04:55.984Z,39.05
2017-09-30T04:05:29.729Z,42.72
2017-09-30T04:06:03.456Z,46.40
2017-09-30T04:06:37.940Z,46.05
2017-09-30T04:07:11.662Z,44.33
2017-09-30T04:07:45.386Z,45.83
2017-09-30T04:08:19.100Z,40.22
2017-09-30T04:08:52.828Z,48.22
2017-09-30T04:09:26.560Z,47.05
2017-09-30T04:10:00.311Z,46.58
2017-09-30T04:10:34.042Z,41.97
2017-09-30T04:11:07.572Z,44.40
2017-09-30T04:11:41.865Z,45.63
2017-09-30T04:12:15.597Z,47.38
2017-09-30T04:12:49.331Z,44.97
2017-09-30T04:13:23.057Z,50.30
2017-09-30T04:13:57.551Z,43.75
2017-09-30T04:14:31.265Z,48.95
2017-09-30T04:15:05.277Z,49.25
2017-09-30T04:15:39.000Z,46.75
2017-09-30T04:16:12.720Z,49.25
2017-09-30T04:16:46.427Z,49.38
2017-09-30T04:17:20.930Z,48.95
2017-09-30T04:17:55.416Z,46.28
2017-09-30T04:18:29.136Z,46.63
2017-09-30T04:19:03.628Z,43.80
2017-09-30T04:19:37.362Z,46.85
2017-09-30T04:20:11.092Z,42.25
2017-09-30T04:20:44.460Z,47.80
2017-09-30T04:21:18.176Z,46.45
2017-09-30T04:21:51.905Z,42.08
2017-09-30T04:22:25.611Z,46.65
2017-09-30T04:22:59.321Z,42.53
2017-09-30T04:23:33.041Z,40.72
2017-09-30T04:24:06.767Z,49.33
2017-09-30T04:24:40.471Z,40.80
2017-09-30T04:25:14.201Z,43.65
2017-09-30T04:25:47.924Z,42.30
2017-09-30T04:26:22.408Z,46.03
2017-09-30T04:26:56.122Z,45.22
2017-09-30T04:27:30.612Z,47.65
2017-09-30T04:28:04.334Z,43.83
2017-09-30T04:28:38.062Z,41.37
2017-09-30T04:29:11.771Z,41.40
2017-09-30T04:29:45.483Z,44.90
2017-09-30T04:30:19.985Z,43.70
2017-09-30T04:30:53.710Z,41.90
2017-09-30T04:31:27.432Z,42.25
2017-09-30T04:32:01.173Z,43.83
2017-09-30T04:32:35.661Z,41.92
2017-09-30T04:33:09.389Z,42.38
2017-09-30T04:33:43.112Z,44.33
2017-09-30T04:34:16.871Z,46.92
2017-09-30T04:34:50.604Z,46.80
2017-09-30T04:35:24.357Z,48.22
2017-09-30T04:35:58.086Z,45.92
2017-09-30T04:36:31.803Z,45.67
2017-09-30T04:37:06.293Z,42.50
2017-09-30T04:37:40.010Z,51.40
2017-09-30T04:38:14.489Z,41.35
2017-09-30T04:38:48.229Z,45.47
2017-09-30T04:39:21.975Z,42.35
2017-09-30T04:39:55.710Z,42.90
2017-09-30T04:40:29.458Z,44.33
2017-09-30T04:41:03.194Z,45.53
2017-09-30T04:41:36.932Z,42.58
2017-09-30T04:42:10.657Z,41.70
2017-09-30T04:42:45.145Z,45.50
2017-09-30T04:43:18.859Z,42.25
2017-09-30T04:43:53.353Z,44.92
2017-09-30T04:44:27.073Z,41.33
2017-09-30T04:45:00.796Z,48.63
2017-09-30T04:45:34.871Z,42.78
2017-09-30T04:46:08.584Z,49.42
2017-09-30T04:46:42.297Z,47.15
2017-09-30T04:47:16.014Z,47.83
2017-09-30T04:47:50.505Z,47.33
2017-09-30T04:48:24.244Z,53.95
2017-09-30T04:48:57.971Z,42.33
2017-09-30T04:49:31.699Z,47.70
2017-09-30T04:50:06.184Z,43.58
2017-09-30T04:50:39.912Z,45.47
2017-09-30T04:51:13.628Z,46.78
2017-09-30T04:51:47.338Z,42.53
2017-09-30T04:52:21.057Z,46.42
2017-09-30T04:52:54.812Z,46.85
2017-09-30T04:53:28.539Z,44.22
2017-09-30T04:54:02.260Z,46.47
2017-09-30T04:54:35.979Z,45.38
2017-09-30T04:55:09.705Z,46.05
2017-09-30T04:55:43.453Z,45.80
2017-09-30T04:56:17.169Z,43.05
2017-09-30T04:56:50.891Z,41.97
2017-09-30T04:57:25.389Z,41.97
2017-09-30T04:57:59.108Z,42.10
2017-09-30T04:58:32.833Z,50.05
2017-09-30T04:59:06.539Z,51.63
2017-09-30T04:59:40.281Z,42.75
2017-09-30T05:00:13.650Z,47.97
2017-09-30T05:00:48.480Z,46.50
2017-09-30T05:01:22.211Z,45.20
2017-09-30T05:01:55.929Z,49.17
2017-09-30T05:02:29.640Z,47.60
2017-09-30T05:03:04.128Z,43.35
2017-09-30T05:03:37.849Z,44.05
2017-09-30T05:04:12.347Z,44.97
2017-09-30T05:04:46.833Z,45.85
2017-09-30T05:05:20.550Z,51.80
2017-09-30T05:05:55.396Z,50.88
2017-09-30T05:06:29.118Z,45.03
2017-09-30T05:07:02.835Z,46.22
2017-09-30T05:07:37.334Z,44.08
2017-09-30T05:08:11.054Z,47.65
2017-09-30T05:08:45.548Z,50.15
2017-09-30T05:09:20.035Z,40.50
2017-09-30T05:09:53.758Z,42.45
2017-09-30T05:10:28.245Z,42.62
2017-09-30T05:11:01.988Z,44.05
2017-09-30T05:11:35.732Z,53.08
2017-09-30T05:12:10.212Z,43.13
2017-09-30T05:12:43.925Z,41.20
2017-09-30T05:13:17.652Z,44.58
2017-09-30T05:13:51.373Z,42.10
2017-09-30T05:14:25.092Z,43.28
2017-09-30T05:14:58.803Z,52.70
2017-09-30T05:15:33.293Z,44.58
2017-09-30T05:16:07.037Z,43.22
2017-09-30T05:16:40.752Z,44.38
2017-09-30T05:17:14.470Z,43.20
2017-09-30T05:17:48.193Z,41.58
2017-09-30T05:18:21.908Z,43.55
2017-09-30T05:18:55.645Z,45.08
2017-09-30T05:19:30.132Z,43.58
2017-09-30T05:20:03.505Z,41.72
2017-09-30T05:20:37.225Z,47.13
2017-09-30T05:21:11.736Z,46.88
2017-09-30T05:21:45.452Z,39.63
2017-09-30T05:22:19.937Z,39.97
2017-09-30T05:22:54.428Z,45.53
2017-09-30T05:23:28.153Z,41.95
2017-09-30T05:24:02.645Z,45.92
2017-09-30T05:24:37.145Z,41.42
2017-09-30T05:25:10.873Z,43.10
2017-09-30T05:25:44.591Z,43.70
2017-09-30T05:26:18.337Z,46.28
2017-09-30T05:26:52.829Z,44.00
2017-09-30T05:27:26.557Z,43.20
2017-09-30T05:28:00.277Z,44.90
2017-09-30T05:28:33.993Z,42.83
2017-09-30T05:29:07.709Z,46.65
2017-09-30T05:29:42.191Z,44.35
2017-09-30T05:30:15.906Z,46.88
2017-09-30T05:30:50.380Z,40.92
2017-09-30T05:31:24.104Z,46.58
2017-09-30T05:31:58.595Z,38.08
2017-09-30T05:32:32.307Z,40.45
2017-09-30T05:33:06.777Z,37.22
2017-09-30T05:33:40.492Z,42.10
2017-09-30T05:34:14.208Z,46.65
2017-09-30T05:34:48.706Z,41.65
2017-09-30T05:35:23.184Z,48.80
2017-09-30T05:35:56.902Z,42.17
2017-09-30T05:36:31.413Z,47.65
2017-09-30T05:37:05.893Z,43.85
2017-09-30T05:37:39.608Z,45.50
2017-09-30T05:38:14.085Z,41.40
2017-09-30T05:38:47.808Z,40.75
2017-09-30T05:39:22.317Z,47.17
2017-09-30T05:39:56.806Z,46.28
2017-09-30T05:40:30.526Z,51.25
2017-09-30T05:41:05.013Z,40.05
2017-09-30T05:41:38.737Z,46.15
2017-09-30T05:42:12.456Z,48.17
2017-09-30T05:42:46.173Z,44.88
2017-09-30T05:43:19.881Z,39.53
2017-09-30T05:43:54.383Z,47.22
2017-09-30T05:44:28.100Z,45.47
2017-09-30T05:45:01.804Z,42.25
2017-09-30T05:45:35.341Z,47.25
2017-09-30T05:46:09.057Z,39.97
2017-09-30T05:46:43.894Z,41.47
2017-09-30T05:47:17.671Z,37.25
2017-09-30T05:47:52.166Z,46.60
2017-09-30T05:48:25.874Z,38.30
2017-09-30T05:48:59.404Z,43.55
2017-09-30T05:49:32.923Z,42.58
2017-09-30T05:50:06.648Z,47.13
2017-09-30T05:50:40.354Z,40.12
2017-09-30T05:51:14.069Z,44.17
2017-09-30T05:51:48.128Z,46.10
2017-09-30T05:52:21.852Z,45.15
2017-09-30T05:52:55.568Z,47.33
2017-09-30T05:53:29.279Z,41.00
2017-09-30T05:54:03.761Z,46.28
2017-09-30T05:54:37.475Z,48.28
2017-09-30T05:55:11.955Z,44.22
2017-09-30T05:55:45.664Z,42.55
2017-09-30T05:56:19.390Z,40.85
2017-09-30T05:56:53.116Z,39.00
2017-09-30T05:57:26.832Z,39.92
2017-09-30T05:58:00.558Z,38.17
2017-09-30T05:58:34.132Z,44.08
2017-09-30T05:59:08.534Z,42.92
2017-09-30T05:59:43.029Z,44.85
2017-09-30T06:00:16.747Z,39.92
2017-09-30T06:00:50.124Z,45.55
2017-09-30T06:01:24.609Z,41.22
2017-09-30T06:01:59.108Z,40.53
2017-09-30T06:02:32.821Z,41.25
2017-09-30T06:03:07.293Z,41.55
2017-09-30T06:03:41.020Z,36.80
2017-09-30T06:04:15.532Z,44.13
2017-09-30T06:04:50.010Z,39.78
2017-09-30T06:05:23.730Z,41.28
2017-09-30T06:05:58.197Z,39.15
2017-09-30T06:06:31.915Z,42.15
2017-09-30T06:07:05.652Z,45.38
2017-09-30T06:07:39.372Z,40.33
2017-09-30T06:08:13.097Z,43.78
2017-09-30T06:08:47.609Z,39.03
2017-09-30T06:09:22.100Z,42.67
2017-09-30T07:29:59.152Z,46.72
2017-09-30T07:30:32.896Z,45.95
2017-09-30T07:31:06.433Z,49.95
2017-09-30T07:31:40.152Z,43.10
2017-09-30T07:32:13.884Z,41.40
2017-09-30T07:32:48.397Z,47.67
2017-09-30T07:33:22.908Z,50.05
2017-09-30T07:33:57.440Z,50.35
2017-09-30T07:34:31.170Z,46.50
2017-09-30T07:35:04.898Z,40.22
2017-09-30T07:35:39.008Z,48.75
2017-09-30T07:36:13.526Z,48.87
2017-09-30T07:36:47.354Z,41.20
2017-09-30T07:37:21.077Z,42.05
2017-09-30T07:37:54.802Z,38.53
2017-09-30T07:38:28.530Z,42.42
2017-09-30T07:39:02.273Z,45.08
2017-09-30T07:39:36.770Z,39.63
2017-09-30T07:40:11.240Z,45.45
2017-09-30T07:40:44.984Z,36.10
2017-09-30T07:41:18.706Z,52.10
2017-09-30T07:41:52.435Z,41.35
2017-09-30T07:42:26.161Z,44.90
2017-09-30T07:42:59.945Z,44.40
2017-09-30T07:43:33.679Z,44.80
2017-09-30T07:44:07.408Z,44.40
2017-09-30T07:44:41.901Z,43.22
2017-09-30T07:45:15.637Z,38.63
2017-09-30T07:45:49.369Z,37.92
2017-09-30T07:46:23.203Z,45.97
2017-09-30T07:46:57.685Z,40.30
2017-09-30T07:47:31.406Z,45.55
2017-09-30T07:48:05.902Z,47.53
2017-09-30T07:48:40.372Z,43.28
2017-09-30T07:49:14.103Z,41.88
2017-09-30T07:49:48.587Z,38.70
2017-09-30T07:50:22.325Z,44.75
2017-09-30T07:50:56.063Z,47.35
2017-09-30T07:51:30.576Z,38.58
2017-09-30T07:52:04.294Z,39.65
2017-09-30T07:52:38.786Z,36.53
2017-09-30T07:53:12.495Z,37.35
2017-09-30T07:53:46.988Z,45.78
2017-09-30T07:54:20.698Z,43.85
2017-09-30T07:54:55.177Z,35.85
2017-09-30T07:55:28.921Z,40.88
2017-09-30T07:56:02.652Z,43.85
2017-09-30T07:56:36.384Z,41.45
2017-09-30T07:57:10.869Z,38.08
2017-09-30T07:57:44.581Z,41.67
2017-09-30T07:58:19.062Z,37.17
2017-09-30T07:58:52.782Z,48.38
2017-09-30T07:59:26.501Z,45.25
2017-09-30T08:00:00.208Z,43.90
2017-09-30T08:00:33.909Z,41.37
2017-09-30T08:01:07.659Z,46.50
2017-09-30T08:01:41.380Z,40.25
2017-09-30T08:02:15.119Z,47.58
2017-09-30T08:02:49.605Z,44.22
2017-09-30T08:03:23.340Z,42.15
2017-09-30T08:03:57.061Z,43.03
2017-09-30T08:04:30.781Z,43.97
2017-09-30T08:05:04.489Z,41.55
2017-09-30T08:05:39.006Z,35.88
2017-09-30T08:06:13.504Z,37.10
2017-09-30T08:06:46.973Z,46.20
2017-09-30T08:07:20.688Z,39.08
2017-09-30T08:07:55.195Z,42.28
2017-09-30T08:08:29.694Z,36.90
2017-09-30T08:09:03.243Z,42.75
2017-09-30T08:09:36.984Z,37.53
2017-09-30T08:10:11.472Z,37.55
2017-09-30T08:10:45.174Z,40.47
2017-09-30T08:11:18.893Z,35.50
2017-09-30T08:11:52.604Z,38.15
2017-09-30T08:12:26.345Z,41.05
2017-09-30T08:13:00.841Z,45.65
2017-09-30T08:13:34.559Z,43.30
2017-09-30T08:14:09.041Z,39.15
2017-09-30T08:14:42.761Z,41.47
2017-09-30T08:15:16.489Z,42.25
2017-09-30T08:15:49.968Z,43.77
2017-09-30T08:16:23.446Z,42.53
2017-09-30T08:16:57.156Z,49.05
2017-09-30T08:17:30.876Z,48.70
2017-09-30T08:18:04.595Z,44.63
2017-09-30T08:18:38.045Z,40.63
2017-09-30T08:19:11.497Z,37.77
2017-09-30T08:19:45.237Z,39.30
2017-09-30T08:20:19.755Z,42.60
2017-09-30T08:20:54.235Z,39.47
2017-09-30T08:21:27.961Z,41.37
2017-09-30T08:22:01.717Z,40.03
2017-09-30T08:22:35.257Z,43.55
2017-09-30T08:23:08.706Z,41.33
2017-09-30T08:23:43.194Z,39.70
2017-09-30T08:24:16.904Z,42.08
2017-09-30T08:24:50.607Z,40.88
2017-09-30T08:25:24.056Z,40.77
2017-09-30T08:25:57.777Z,39.22
2017-09-30T08:26:32.384Z,39.20
2017-09-30T08:27:05.866Z,37.40
2017-09-30T08:27:39.324Z,36.03
2017-09-30T08:28:13.052Z,40.80
2017-09-30T08:28:46.315Z,38.43
2017-09-30T08:29:20.059Z,42.53
2017-09-30T08:29:53.504Z,37.97
2017-09-30T08:30:26.954Z,37.53
2017-09-30T08:31:01.290Z,42.70
2017-09-30T08:31:34.760Z,42.70
2017-09-30T08:32:08.200Z,48.17
2017-09-30T08:32:41.669Z,37.80
2017-09-30T08:33:15.402Z,42.17
2017-09-30T08:33:49.113Z,34.10
2017-09-30T08:34:22.830Z,43.03
2017-09-30T08:34:56.552Z,41.33
2017-09-30T08:35:30.265Z,39.47
2017-09-30T08:36:04.501Z,42.87